Time;durP1;ratioP1;P1;durP2;ratioP2;P2;SDS_P1;SDS_P2;PMS_P1;PMS_P2;Temp;Humidity;BMP_temperature;BMP_pressure;BME280_temperature;BME280_humidity;BME280_pressure;Samples;Min_cycle;Max_cycle;Signal;HPM_P1;HPM_P2
2021/11/15 00:00:10;;;;;;;45.40;22.75;;;7.60;80.70;;;6.82;67.25;95648.81;4959603;28;20307;-87
2021/11/15 00:02:44;;;;;;;40.70;22.52;;;7.60;80.80;;;6.83;66.95;95647.88;4943943;28;20238;-85
2021/11/15 00:05:12;;;;;;;39.70;21.70;;;7.60;80.80;;;6.82;66.93;95639.22;4939703;29;20230;-86
2021/11/15 00:07:41;;;;;;;39.65;21.77;;;7.50;80.70;;;6.81;66.92;95636.75;4955855;29;20239;-86
2021/11/15 00:10:15;;;;;;;40.55;21.42;;;7.50;80.70;;;6.83;66.87;95642.66;4939735;29;20709;-87
2021/11/15 00:12:50;;;;;;;39.78;20.75;;;7.50;80.70;;;6.86;67.05;95639.72;4952492;28;20222;-87
2021/11/15 00:15:19;;;;;;;41.72;21.55;;;7.60;80.80;;;6.85;67.00;95638.91;4958371;28;20230;-87
2021/11/15 00:17:47;;;;;;;40.47;21.27;;;7.60;80.80;;;6.83;67.04;95634.81;4942699;28;20257;-87
2021/11/15 00:20:16;;;;;;;43.55;21.80;;;7.60;80.70;;;6.81;66.83;95634.16;4958529;28;20242;-86
2021/11/15 00:22:44;;;;;;;43.38;23.02;;;7.60;80.80;;;6.80;67.12;95628.13;4942632;28;20270;-86
2021/11/15 00:25:13;;;;;;;44.55;23.90;;;7.60;80.80;;;6.84;67.08;95637.28;4942830;28;20211;-87
2021/11/15 00:27:41;;;;;;;44.33;23.15;;;7.60;80.80;;;6.81;67.08;95636.75;4942847;28;20230;-86
2021/11/15 00:30:14;;;;;;;44.30;23.25;;;7.50;80.70;;;6.77;67.15;95623.19;4942142;28;20234;-85
2021/11/15 00:32:42;;;;;;;48.83;22.83;;;7.60;80.80;;;6.84;67.01;95631.25;4957498;28;20223;-85
2021/11/15 00:35:12;;;;;;;40.83;21.95;;;7.60;80.80;;;6.85;66.87;95636.31;4942460;28;20363;-86
2021/11/15 00:37:41;;;;;;;42.20;20.85;;;7.60;80.80;;;6.87;67.06;95633.53;4942504;28;20281;-87
2021/11/15 00:40:14;;;;;;;44.45;23.17;;;7.60;80.80;;;6.85;67.04;95641.53;4942069;28;20685;-86
2021/11/15 00:42:42;;;;;;;46.55;22.85;;;7.60;80.90;;;6.86;66.75;95643.16;4942893;28;20246;-87
2021/11/15 00:45:12;;;;;;;42.92;22.67;;;7.60;80.80;;;6.86;66.98;95637.13;4942615;28;20304;-86
2021/11/15 00:47:39;;;;;;;46.05;24.23;;;7.60;80.80;;;6.84;66.87;95636.47;4958585;28;20270;-86
2021/11/15 00:50:11;;;;;;;41.13;21.38;;;7.60;80.70;;;6.85;66.90;95649.34;4941408;28;20222;-86
2021/11/15 00:52:39;;;;;;;42.45;21.92;;;7.60;80.70;;;6.84;67.22;95649.50;4926519;28;20206;-87
2021/11/15 00:55:07;;;;;;;40.85;20.90;;;7.60;80.70;;;6.84;67.02;95647.72;4925834;28;20222;-87
2021/11/15 00:57:34;;;;;;;33.22;19.30;;;7.60;80.80;;;6.82;66.96;95643.63;4942140;28;20210;-86
2021/11/15 01:00:09;;;;;;;42.35;20.77;;;7.60;80.70;;;6.84;66.75;95647.72;4941969;28;20246;-86
2021/11/15 01:02:37;;;;;;;34.90;19.38;;;7.60;80.70;;;6.85;66.88;95654.56;4941820;28;20268;-87
2021/11/15 01:05:06;;;;;;;33.22;18.42;;;7.60;80.80;;;6.81;67.03;95645.41;4926010;28;20222;-87
2021/11/15 01:07:33;;;;;;;34.58;18.50;;;7.60;80.70;;;6.86;66.86;95643.16;4941902;28;20198;-87
2021/11/15 01:10:02;;;;;;;32.95;17.77;;;7.60;80.70;;;6.79;66.95;95629.09;4925883;28;21841;-87
2021/11/15 01:12:29;;;;;;;30.92;18.98;;;7.60;80.70;;;6.86;66.96;95640.56;4942205;28;20654;-86
2021/11/15 01:14:57;;;;;;;32.08;17.85;;;7.60;80.70;;;6.80;66.77;95633.34;4941843;28;20305;-86
2021/11/15 01:17:24;;;;;;;35.33;18.77;;;7.60;80.70;;;6.86;66.95;95640.56;4941984;28;20210;-86
2021/11/15 01:19:52;;;;;;;32.33;17.45;;;7.60;80.60;;;6.86;66.97;95645.78;4941923;28;20318;-86
2021/11/15 01:22:19;;;;;;;33.47;18.05;;;7.60;80.60;;;6.85;66.86;95640.72;4934020;28;20205;-87
2021/11/15 01:24:46;;;;;;;37.05;19.00;;;7.70;80.70;;;6.86;67.03;95644.94;4925984;28;20253;-87
2021/11/15 01:27:14;;;;;;;37.75;19.63;;;7.60;80.60;;;6.86;67.00;95642.34;4941759;28;20206;-87
2021/11/15 01:29:41;;;;;;;37.92;20.27;;;7.60;80.60;;;6.85;67.06;95635.50;4941185;28;20447;-87
2021/11/15 01:32:08;;;;;;;38.60;19.40;;;7.60;80.60;;;6.85;66.90;95640.72;4941398;28;20314;-87
2021/11/15 01:34:36;;;;;;;38.08;19.38;;;7.60;80.60;;;6.86;66.90;95643.16;4957105;28;20700;-86
2021/11/15 01:37:04;;;;;;;33.83;18.42;;;7.60;80.60;;;6.82;66.77;95636.63;4941281;28;20268;-87
2021/11/15 01:39:32;;;;;;;40.38;20.08;;;7.60;80.70;;;6.87;67.17;95644.81;4940369;28;20221;-86
2021/11/15 01:41:59;;;;;;;34.17;18.00;;;7.60;80.70;;;6.87;67.08;95644.81;4941140;28;20209;-87
2021/11/15 01:44:28;;;;;;;37.47;19.38;;;7.60;80.70;;;6.88;66.87;95646.47;4941452;28;20222;-87
2021/11/15 01:46:56;;;;;;;40.38;19.95;;;7.60;80.70;;;6.88;67.01;95635.19;4941551;28;20203;-86
2021/11/15 01:49:23;;;;;;;34.28;18.90;;;7.60;80.70;;;6.86;66.81;95631.91;4959745;28;20226;-87
2021/11/15 01:51:50;;;;;;;32.78;18.77;;;7.70;80.70;;;6.89;66.82;95642.03;4944167;28;20205;-86
2021/11/15 01:54:18;;;;;;;39.83;19.42;;;7.60;80.70;;;6.89;66.84;95639.44;4945488;28;20406;-85
2021/11/15 01:56:49;;;;;;;37.00;19.95;;;7.60;80.70;;;6.89;66.75;95642.84;4942293;29;20191;-87
2021/11/15 01:59:18;;;;;;;39.15;20.65;;;7.60;80.70;;;6.90;66.91;95641.09;4945449;28;20354;-87
2021/11/15 02:01:45;;;;;;;37.88;20.25;;;7.60;80.70;;;6.86;66.99;95639.72;4945011;28;20302;-87
2021/11/15 02:04:13;;;;;;;40.05;21.65;;;7.70;80.80;;;6.88;66.94;95645.63;4961360;28;20222;-87
2021/11/15 02:06:41;;;;;;;38.65;20.55;;;7.60;80.60;;;6.89;66.85;95649.88;4945324;28;20201;-87
2021/11/15 02:09:09;;;;;;;43.25;22.52;;;7.70;80.70;;;6.88;66.80;95645.63;4945003;28;20346;-87
2021/11/15 02:11:36;;;;;;;42.17;21.23;;;7.60;80.70;;;6.86;66.96;95642.34;4944398;28;20198;-86
2021/11/15 02:14:04;;;;;;;38.38;20.27;;;7.60;80.70;;;6.86;66.89;95648.38;4961007;28;20293;-87
2021/11/15 02:16:32;;;;;;;42.90;22.60;;;7.60;80.70;;;6.86;66.85;95642.34;4945027;28;20291;-87
2021/11/15 02:19:00;;;;;;;42.40;22.50;;;7.60;80.60;;;6.86;66.91;95642.34;4944795;28;20226;-87
2021/11/15 02:21:28;;;;;;;44.08;22.45;;;7.60;80.70;;;6.83;66.85;95646.06;4961135;28;20274;-86
2021/11/15 02:23:56;;;;;;;43.75;22.23;;;7.60;80.70;;;6.85;67.14;95646.75;4960613;28;20226;-87
2021/11/15 02:26:25;;;;;;;45.47;22.88;;;7.60;80.70;;;6.85;67.03;95643.31;4944536;28;20191;-87
2021/11/15 02:28:54;;;;;;;41.17;22.27;;;7.60;80.80;;;6.80;66.84;95638.56;4960933;28;20222;-86
2021/11/15 02:31:28;;;;;;;40.38;22.33;;;7.60;80.80;;;6.83;66.83;95643.47;4928521;28;20309;-84
2021/11/15 02:33:59;;;;;;;44.78;23.27;;;7.60;81.60;;;6.79;66.89;95631.69;4928921;28;20264;-86
2021/11/15 02:36:29;;;;;;;41.97;21.90;;;7.60;80.80;;;6.81;66.91;95634.97;4945038;28;20257;-86
2021/11/15 02:38:57;;;;;;;39.22;20.45;;;7.60;80.80;;;6.86;67.05;95650.16;4944591;28;20643;-87
2021/11/15 02:41:26;;;;;;;43.88;21.65;;;7.60;80.80;;;6.83;67.01;95643.47;4941077;28;20203;-86
2021/11/15 02:43:53;;;;;;;43.70;22.48;;;7.60;80.70;;;6.83;67.10;95638.25;4935399;28;20257;-86
2021/11/15 02:46:21;;;;;;;44.20;23.48;;;7.60;80.80;;;6.84;67.10;95646.91;4958369;28;20300;-86
2021/11/15 02:48:48;;;;;;;46.40;24.55;;;7.60;80.80;;;6.81;67.17;95641.97;4944333;28;20249;-86
2021/11/15 02:51:16;;;;;;;45.10;23.63;;;7.70;80.80;;;6.83;66.77;95642.66;4944031;28;20670;-86
2021/11/15 02:53:46;;;;;;;45.92;22.95;;;7.50;80.70;;;6.81;66.93;95634.16;4954965;28;20564;-86
2021/11/15 02:56:15;;;;;;;48.22;24.15;;;7.60;80.80;;;6.73;67.19;95633.09;4959805;28;20250;-85
2021/11/15 02:58:42;;;;;;;51.33;25.88;;;7.50;80.70;;;6.79;67.04;95646.53;4942972;28;20265;-86
2021/11/15 03:01:14;;;;;;;52.00;26.40;;;7.60;80.70;;;6.80;67.27;95650.75;4956063;28;20253;-85
2021/11/15 03:03:43;;;;;;;49.58;24.73;;;7.50;80.70;;;6.78;67.14;95643.09;4941913;28;20229;-86
2021/11/15 03:06:10;;;;;;;51.08;24.75;;;7.60;80.80;;;6.77;67.33;95646.66;4956613;28;20215;-85
2021/11/15 03:08:40;;;;;;;54.40;26.70;;;7.60;80.80;;;6.78;67.11;95644.91;4939519;28;20238;-85
2021/11/15 03:11:08;;;;;;;47.17;23.42;;;7.50;80.80;;;6.80;67.25;95646.38;4924506;28;20269;-85
2021/11/15 03:13:44;;;;;;;54.83;25.73;;;7.50;80.70;;;6.79;67.13;95642.13;4938702;28;20214;-85
2021/11/15 03:16:13;;;;;;;52.25;26.45;;;7.60;80.90;;;6.74;67.37;95644.38;4941681;28;20253;-86
2021/11/15 03:18:42;;;;;;;50.80;24.35;;;7.60;80.80;;;6.78;67.17;95645.69;4927824;28;20218;-85
2021/11/15 03:21:18;;;;;;;52.33;26.02;;;7.50;80.80;;;6.78;67.33;95642.28;4942498;28;20682;-86
2021/11/15 03:23:49;;;;;;;50.22;26.15;;;7.50;80.80;;;6.75;67.00;95638.19;4946875;28;20677;-86
2021/11/15 03:26:16;;;;;;;53.03;25.90;;;7.60;80.80;;;6.77;67.22;95649.28;4938868;28;20281;-86
2021/11/15 03:28:48;;;;;;;55.42;25.63;;;7.50;80.80;;;6.76;67.27;95649.44;4938184;28;20234;-86
2021/11/15 03:31:24;;;;;;;49.75;24.67;;;7.50;80.90;;;6.77;66.93;95657.09;4952035;28;20191;-86
2021/11/15 03:34:01;;;;;;;51.63;24.80;;;7.50;80.90;;;6.71;67.20;95640.28;4952795;28;20680;-85
2021/11/15 03:36:29;;;;;;;48.45;24.58;;;7.50;80.80;;;6.72;66.88;95648.91;4940531;28;20301;-86
2021/11/15 03:38:58;;;;;;;55.63;26.92;;;7.50;80.70;;;6.73;67.32;95648.75;4945178;28;20574;-85
2021/11/15 03:41:29;;;;;;;46.38;24.27;;;7.50;80.80;;;6.72;67.08;95647.09;4942827;28;20675;-85
2021/11/15 03:43:56;;;;;;;54.05;26.33;;;7.50;80.70;;;6.65;67.19;95646.09;4942568;28;20712;-85
2021/11/15 03:46:23;;;;;;;46.45;25.48;;;7.50;80.80;;;6.73;66.84;95653.16;4937817;28;20226;-85
2021/11/15 03:48:52;;;;;;;44.05;24.25;;;7.50;80.80;;;6.72;66.96;95654.94;4945303;28;20238;-84
2021/11/15 03:51:20;;;;;;;50.70;24.90;;;7.50;80.70;;;6.71;67.19;95661.13;4951002;28;20199;-85
2021/11/15 03:53:48;;;;;;;47.42;24.67;;;7.50;80.80;;;6.72;67.10;95661.94;4932203;28;20227;-86
2021/11/15 03:56:22;;;;;;;51.53;27.33;;;7.40;80.70;;;6.69;67.40;95655.25;4968913;28;20620;-85
2021/11/15 03:58:50;;;;;;;49.63;25.58;;;7.50;80.70;;;6.64;66.85;95649.66;4949199;28;20684;-86
2021/11/15 04:01:22;;;;;;;57.92;27.38;;;7.50;80.70;;;6.69;67.11;95652.63;4952545;28;20273;-86
2021/11/15 04:03:54;;;;;;;51.28;25.85;;;7.50;80.80;;;6.64;67.05;95649.66;4936443;28;20216;-85
2021/11/15 04:06:26;;;;;;;51.38;27.73;;;7.50;80.70;;;6.68;67.15;95656.22;4932572;28;20199;-85
2021/11/15 04:09:01;;;;;;;53.17;26.95;;;7.50;80.80;;;6.69;67.04;95651.84;4942343;28;20219;-86
2021/11/15 04:11:31;;;;;;;53.20;28.10;;;7.40;80.80;;;6.68;67.37;95647.59;4947948;28;20656;-85
2021/11/15 04:14:04;;;;;;;54.40;27.25;;;7.50;80.90;;;6.69;67.19;95654.44;4941618;28;20273;-85
2021/11/15 04:16:32;;;;;;;51.80;26.48;;;7.50;80.80;;;6.68;66.97;95645.78;4949796;28;20251;-85
2021/11/15 04:19:07;;;;;;;50.35;25.38;;;7.50;80.80;;;6.66;67.44;95652.91;4934192;28;20215;-85
2021/11/15 04:21:35;;;;;;;59.00;29.10;;;7.40;80.70;;;6.64;67.22;95652.28;4944407;28;20317;-86
2021/11/15 04:24:03;;;;;;;52.15;26.58;;;7.40;80.70;;;6.65;67.09;95645.25;4943352;28;20239;-85
2021/11/15 04:26:31;;;;;;;51.60;26.45;;;7.40;80.70;;;6.63;67.00;95653.22;4950562;28;20207;-85
2021/11/15 04:28:59;;;;;;;54.05;27.58;;;7.40;80.70;;;6.64;66.99;95656.66;4939460;28;20228;-86
2021/11/15 04:31:27;;;;;;;55.47;26.90;;;7.40;80.80;;;6.62;67.27;95654.19;4933551;28;20221;-85
2021/11/15 04:33:54;;;;;;;50.42;25.75;;;7.40;80.70;;;6.62;67.22;95653.38;4952600;28;20250;-85
2021/11/15 04:36:22;;;;;;;53.33;26.98;;;7.40;80.80;;;6.57;67.15;95646.81;4940541;28;20618;-86
2021/11/15 04:38:50;;;;;;;56.45;27.38;;;7.40;80.70;;;6.61;67.10;95655.16;4951388;28;20841;-85
2021/11/15 04:41:19;;;;;;;59.33;28.92;;;7.40;81.50;;;6.60;67.36;95653.50;4922502;28;20352;-85
2021/11/15 04:43:48;;;;;;;58.10;29.42;;;7.40;80.70;;;6.56;67.13;95641.75;4955225;28;20314;-86
2021/11/15 04:46:17;;;;;;;60.55;28.90;;;7.40;80.70;;;6.57;67.26;95646.81;4949255;28;20297;-85
2021/11/15 04:48:46;;;;;;;56.72;29.20;;;7.30;80.70;;;6.57;67.25;95646.81;4922412;28;20235;-85
2021/11/15 04:51:14;;;;;;;53.38;27.40;;;7.40;80.80;;;6.57;67.29;95652.03;4924290;28;20187;-85
2021/11/15 04:53:41;;;;;;;59.30;27.75;;;7.40;80.80;;;6.52;67.12;95637.81;4921009;29;20249;-86
2021/11/15 04:56:08;;;;;;;57.28;27.70;;;7.40;80.80;;;6.55;67.21;95656.59;4931529;28;20202;-86
2021/11/15 04:58:36;;;;;;;56.42;27.30;;;7.30;80.70;;;6.52;67.16;95651.66;4939474;28;20231;-86
2021/11/15 05:01:05;;;;;;;51.80;26.98;;;7.30;80.80;;;6.48;67.36;95637.31;4955511;28;20298;-85
2021/11/15 05:03:35;;;;;;;51.95;26.80;;;7.30;80.80;;;6.56;67.39;95653.00;4951279;28;20215;-85
2021/11/15 05:06:04;;;;;;;54.35;26.48;;;7.30;80.80;;;6.52;67.15;95633.41;4956067;28;20524;-85
2021/11/15 05:08:32;;;;;;;55.47;27.65;;;7.30;80.80;;;6.55;67.23;95645.34;4939613;28;20253;-86
2021/11/15 05:11:00;;;;;;;60.38;30.70;;;7.30;80.80;;;6.56;67.34;95641.75;4939817;28;20289;-86
2021/11/15 05:13:28;;;;;;;58.85;28.63;;;7.30;80.80;;;6.55;67.43;95640.13;4939789;28;20227;-85
2021/11/15 05:15:56;;;;;;;57.15;28.65;;;7.30;80.80;;;6.56;67.20;95652.19;4939942;28;20223;-86
2021/11/15 05:18:23;;;;;;;64.20;28.92;;;7.30;80.70;;;6.53;67.39;95648.09;4939578;28;20222;-86
2021/11/15 05:20:51;;;;;;;57.97;26.98;;;7.30;80.80;;;6.54;67.26;95651.50;4941102;28;20297;-86
2021/11/15 05:23:18;;;;;;;58.35;28.77;;;7.30;80.90;;;6.51;67.05;95644.81;4938909;28;20253;-86
2021/11/15 05:25:45;;;;;;;60.72;28.52;;;7.30;80.90;;;6.57;67.55;95651.22;4941358;28;20194;-87
2021/11/15 05:28:13;;;;;;;60.85;29.80;;;7.30;80.90;;;6.56;67.06;95644.38;4957659;28;20425;-86
2021/11/15 05:30:40;;;;;;;57.00;28.88;;;7.30;80.90;;;6.60;67.25;95652.72;4941965;28;20201;-85
2021/11/15 05:33:08;;;;;;;57.22;27.95;;;7.30;80.90;;;6.59;67.15;95645.84;4941989;28;20202;-87
2021/11/15 05:35:36;;;;;;;63.88;31.13;;;7.30;80.90;;;6.59;67.19;95659.69;4941165;28;20218;-86
2021/11/15 05:38:04;;;;;;;61.80;30.60;;;7.30;80.80;;;6.58;66.96;95655.47;4925349;28;20195;-87
2021/11/15 05:40:32;;;;;;;63.97;32.42;;;7.40;80.90;;;6.51;67.05;95654.44;4922749;29;20278;-87
2021/11/15 05:43:00;;;;;;;63.75;32.55;;;7.30;80.80;;;6.52;67.11;95658.69;4938530;28;20207;-87
2021/11/15 05:45:28;;;;;;;72.93;35.28;;;7.30;80.80;;;6.54;67.09;95669.75;4930927;28;20210;-87
2021/11/15 05:47:56;;;;;;;66.47;32.17;;;7.30;80.80;;;6.54;67.25;95670.59;4956874;28;20298;-87
2021/11/15 05:50:27;;;;;;;69.07;32.92;;;7.30;80.80;;;6.54;66.99;95667.13;4925764;28;20791;-87
2021/11/15 05:52:56;;;;;;;72.40;32.78;;;7.30;80.80;;;6.51;67.25;95667.47;4926114;28;20205;-86
2021/11/15 05:55:25;;;;;;;66.10;32.17;;;7.30;80.80;;;6.52;66.73;95674.31;4941274;28;20821;-87
2021/11/15 05:57:53;;;;;;;66.10;32.22;;;7.30;80.80;;;6.53;67.32;95674.16;4940875;28;20249;-86
2021/11/15 06:00:27;;;;;;;64.07;30.85;;;7.30;80.80;;;6.52;67.03;95672.50;4940870;28;20219;-87
2021/11/15 06:02:56;;;;;;;65.88;31.48;;;7.30;80.80;;;6.51;67.39;95673.47;4956994;28;20217;-85
2021/11/15 06:05:24;;;;;;;65.55;31.50;;;7.30;80.90;;;6.47;67.17;95663.47;4941606;28;20281;-87
2021/11/15 06:07:52;;;;;;;64.32;29.23;;;7.30;80.90;;;6.49;67.22;95670.19;4925554;28;20211;-87
2021/11/15 06:10:20;;;;;;;63.17;30.00;;;7.30;80.90;;;6.49;67.22;95666.78;4940858;28;20309;-87
2021/11/15 06:12:47;;;;;;;61.25;29.77;;;7.30;80.90;;;6.51;67.13;95673.47;4941547;28;20258;-87
2021/11/15 06:15:17;;;;;;;65.22;28.63;;;7.30;81.00;;;6.53;67.14;95668.09;4941026;28;20226;-86
2021/11/15 06:17:44;;;;;;;58.67;27.23;;;7.30;81.00;;;6.53;67.14;95676.75;4940812;28;20207;-86
2021/11/15 06:20:14;;;;;;;55.47;27.00;;;7.30;81.00;;;6.53;67.34;95678.53;4944108;29;20320;-86
2021/11/15 06:22:43;;;;;;;58.85;28.92;;;7.20;81.00;;;6.56;67.40;95686.88;4943681;28;20229;-86
2021/11/15 06:25:13;;;;;;;60.28;29.05;;;7.30;81.10;;;6.53;67.32;95673.31;4957280;28;20215;-86
2021/11/15 06:27:40;;;;;;;63.42;29.45;;;7.30;81.00;;;6.58;67.28;95691.97;4941004;28;20245;-86
2021/11/15 06:30:13;;;;;;;62.85;30.00;;;7.30;81.00;;;6.55;67.45;95687.88;4940560;28;20305;-86
2021/11/15 06:32:40;;;;;;;70.93;32.10;;;7.30;81.00;;;6.56;67.12;95688.69;4938506;29;20211;-86
2021/11/15 06:35:08;;;;;;;65.40;31.45;;;7.40;81.00;;;6.54;67.47;95696.66;4939906;29;20226;-86
2021/11/15 06:37:36;;;;;;;64.68;30.90;;;7.30;80.90;;;6.55;67.24;95700.91;4957620;29;20211;-86
2021/11/15 06:40:07;;;;;;;61.15;30.13;;;7.30;81.00;;;6.54;67.00;95698.41;4941523;28;20418;-86
2021/11/15 06:42:35;;;;;;;61.05;29.27;;;7.30;80.90;;;6.51;67.23;95691.72;4944795;28;20202;-86
2021/11/15 06:45:07;;;;;;;61.92;30.05;;;7.30;81.00;;;6.54;67.33;95708.84;4944521;28;20305;-86
2021/11/15 06:47:36;;;;;;;64.28;30.80;;;7.30;81.00;;;6.54;67.07;95706.25;4960540;28;20214;-86
2021/11/15 06:50:07;;;;;;;64.30;30.65;;;7.30;80.90;;;6.53;67.40;95695.00;4940409;29;20230;-86
2021/11/15 06:52:34;;;;;;;71.00;29.77;;;7.30;81.00;;;6.53;67.54;95697.63;4979174;28;20249;-86
2021/11/15 06:55:03;;;;;;;66.18;30.35;;;7.30;81.00;;;6.55;67.54;95700.91;4944533;28;20294;-86
2021/11/15 06:57:30;;;;;;;62.38;29.52;;;7.30;80.90;;;6.55;67.40;95697.47;4943876;28;20210;-86
2021/11/15 06:59:58;;;;;;;63.60;29.23;;;7.30;81.00;;;6.57;67.29;95711.16;4940726;29;20713;-86
2021/11/15 07:02:26;;;;;;;58.88;27.00;;;7.30;81.00;;;6.58;67.50;95705.00;4957273;28;20191;-86
2021/11/15 07:04:53;;;;;;;67.10;28.77;;;7.30;81.10;;;6.59;67.11;95706.59;4957020;28;20238;-86
2021/11/15 07:07:20;;;;;;;62.55;28.08;;;7.30;81.10;;;6.61;67.48;95717.72;4965780;28;20199;-85
2021/11/15 07:09:49;;;;;;;65.78;29.45;;;7.30;81.10;;;6.57;67.45;95704.16;4941695;28;20218;-85
2021/11/15 07:12:17;;;;;;;67.97;29.73;;;7.40;81.20;;;6.63;67.31;95712.34;4982868;28;20195;-84
2021/11/15 07:14:44;;;;;;;64.53;29.13;;;7.30;81.10;;;6.63;67.38;95710.56;4917757;28;20231;-87
2021/11/15 07:17:12;;;;;;;63.67;27.83;;;7.30;81.10;;;6.65;67.39;95707.81;4932803;28;20195;-86
2021/11/15 07:19:39;;;;;;;58.00;27.48;;;7.40;81.10;;;6.65;67.52;95708.66;4947019;28;20241;-85
2021/11/15 07:22:27;;;;;;;66.85;29.00;;;7.30;81.00;;;6.61;67.45;95702.06;4939434;28;20230;-86
2021/11/15 07:24:54;;;;;;;69.88;29.65;;;7.40;81.10;;;6.65;67.35;95713.03;4944216;28;20215;-86
2021/11/15 07:27:22;;;;;;;65.78;28.77;;;7.40;81.10;;;6.66;67.21;95714.69;4955666;28;20669;-86
2021/11/15 07:29:49;;;;;;;59.70;28.83;;;7.40;81.10;;;6.68;67.50;95717.97;4927743;28;20691;-86
2021/11/15 07:32:16;;;;;;;63.50;29.27;;;7.40;81.10;;;6.66;67.03;95710.28;4937685;28;20606;-86
2021/11/15 07:34:44;;;;;;;67.70;29.67;;;7.40;81.90;;;6.66;67.09;95715.47;4942030;28;20222;-85
2021/11/15 07:37:11;;;;;;;64.70;29.15;;;7.40;81.10;;;6.67;67.30;95716.31;4934535;28;20200;-87
2021/11/15 07:39:42;;;;;;;61.30;27.65;;;7.40;81.10;;;6.64;67.50;95706.16;4932708;28;20211;-86
2021/11/15 07:42:17;;;;;;;61.13;27.45;;;7.40;81.10;;;6.70;67.61;95705.59;4960937;28;20183;-85
2021/11/15 07:44:48;;;;;;;56.05;26.48;;;7.40;81.20;;;6.73;67.36;95707.91;4942390;28;20215;-87
2021/11/15 07:47:17;;;;;;;61.35;26.77;;;7.40;81.30;;;6.74;67.48;95709.56;4943174;28;20198;-86
2021/11/15 07:49:45;;;;;;;61.03;28.30;;;7.40;81.20;;;6.77;67.05;95709.25;4961147;28;20261;-85
2021/11/15 07:52:16;;;;;;;64.43;27.60;;;7.50;81.20;;;6.80;66.97;95713.34;4944886;28;20194;-86
2021/11/15 07:54:46;;;;;;;62.45;27.40;;;7.40;81.20;;;6.80;67.43;95716.78;4913846;29;20258;-87
2021/11/15 07:57:15;;;;;;;58.45;25.25;;;7.50;81.20;;;6.82;67.26;95711.41;4938419;28;20266;-86
2021/11/15 07:59:44;;;;;;;57.25;26.58;;;7.50;81.20;;;6.82;67.20;95701.81;4940661;28;20230;-85
2021/11/15 08:02:12;;;;;;;61.03;27.73;;;7.50;81.20;;;6.83;67.15;95702.63;4944352;29;20206;-86
2021/11/15 08:04:39;;;;;;;67.20;29.02;;;7.50;81.20;;;6.82;67.35;95696.59;4959580;28;20250;-86
2021/11/15 08:07:07;;;;;;;57.45;26.17;;;7.50;81.20;;;6.86;67.21;95699.69;4941902;28;20242;-86
2021/11/15 08:09:34;;;;;;;62.90;27.67;;;7.50;81.10;;;6.82;67.45;95693.16;4943706;28;20780;-87
2021/11/15 08:12:06;;;;;;;62.15;28.40;;;7.60;81.20;;;6.88;67.40;95706.44;4941785;28;20214;-86
2021/11/15 08:14:38;;;;;;;67.78;29.02;;;7.60;81.30;;;6.91;67.41;95712.28;4940950;28;20306;-86
2021/11/15 08:17:06;;;;;;;59.15;27.30;;;7.60;81.20;;;6.91;67.45;95705.31;4938153;28;20238;-85
2021/11/15 08:19:35;;;;;;;58.88;28.13;;;7.60;81.30;;;6.93;67.39;95700.75;4941340;28;20221;-86
2021/11/15 08:22:03;;;;;;;55.38;27.08;;;7.60;81.20;;;6.97;67.38;95706.47;4940604;28;20199;-86
2021/11/15 08:25:02;;;;;;;58.28;27.08;;;7.60;81.30;;;7.00;67.30;95709.63;4950532;28;20222;-87
2021/11/15 08:27:31;;;;;;;57.22;26.90;;;7.70;81.30;;;7.01;67.28;95703.44;4958411;28;20222;-86
2021/11/15 08:29:58;;;;;;;60.42;27.92;;;7.60;81.30;;;7.04;67.54;95705.75;4958549;28;20233;-87
2021/11/15 08:32:25;;;;;;;60.13;27.40;;;7.70;81.30;;;7.07;67.25;95703.78;4938906;28;20208;-86
2021/11/15 08:34:55;;;;;;;60.40;26.48;;;7.70;81.30;;;7.06;67.45;95700.38;4932681;28;20223;-85
2021/11/15 08:37:23;;;;;;;69.10;30.02;;;7.80;81.40;;;7.08;67.58;95695.00;4943582;28;20205;-85
2021/11/15 08:39:50;;;;;;;62.70;29.02;;;7.70;81.30;;;7.18;67.47;95707.00;4941957;29;20294;-86
2021/11/15 08:42:21;;;;;;;65.28;29.90;;;7.80;81.50;;;7.23;67.26;95706.56;4943003;28;20203;-85
2021/11/15 08:45:00;;;;;;;63.33;28.70;;;7.90;81.40;;;7.25;67.12;95706.38;4939800;28;20215;-86
2021/11/15 08:47:28;;;;;;;68.13;31.02;;;7.80;81.40;;;7.22;67.24;95697.09;4936917;28;20206;-86
2021/11/15 08:49:55;;;;;;;65.25;30.55;;;7.90;81.40;;;7.27;66.91;95709.69;4943529;28;20587;-86
2021/11/15 08:52:23;;;;;;;53.72;27.50;;;7.90;81.30;;;7.32;67.34;95715.25;4938642;28;20289;-86
2021/11/15 08:54:51;;;;;;;51.38;25.73;;;7.90;81.40;;;7.34;67.12;95714.13;4936448;29;20282;-87
2021/11/15 08:57:19;;;;;;;52.78;26.80;;;7.90;81.40;;;7.42;67.13;95716.00;4968546;28;20362;-86
2021/11/15 08:59:53;;;;;;;54.78;26.33;;;7.90;81.40;;;7.48;67.02;95719.78;4957633;28;20692;-86
2021/11/15 09:02:24;;;;;;;56.83;27.95;;;8.00;81.40;;;7.49;66.95;95716.19;4941042;28;20199;-86
2021/11/15 09:04:51;;;;;;;59.05;28.40;;;8.00;81.30;;;7.46;66.86;95701.66;4957631;28;20218;-85
2021/11/15 09:07:19;;;;;;;59.00;28.10;;;8.10;81.40;;;7.54;67.09;95713.94;4956295;28;20209;-87
2021/11/15 09:09:46;;;;;;;72.95;33.05;;;8.20;81.50;;;7.57;66.49;95712.81;4935377;29;20223;-87
2021/11/15 09:12:16;;;;;;;63.85;30.80;;;8.10;81.20;;;7.56;66.52;95714.63;4979845;28;20202;-87
2021/11/15 09:14:43;;;;;;;61.33;29.77;;;8.10;81.10;;;7.57;66.82;95716.25;4973726;28;20246;-86
2021/11/15 09:17:10;;;;;;;65.88;31.67;;;8.20;81.20;;;7.56;67.02;95721.66;4933006;28;20194;-86
2021/11/15 09:19:38;;;;;;;67.97;32.40;;;8.30;81.10;;;7.56;67.14;95719.84;4953146;28;20218;-87
2021/11/15 09:22:06;;;;;;;69.80;32.20;;;8.20;81.00;;;7.57;66.60;95726.69;4972328;28;20199;-87
2021/11/15 09:24:34;;;;;;;63.65;30.42;;;8.20;81.00;;;7.59;66.81;95730.00;4941004;28;20751;-88
2021/11/15 09:27:02;;;;;;;71.78;34.17;;;8.20;81.00;;;7.59;66.86;95727.38;4925078;28;20234;-88
2021/11/15 09:29:29;;;;;;;70.90;32.33;;;8.20;81.00;;;7.58;66.86;95723.13;4938442;28;20227;-89
2021/11/15 09:31:57;;;;;;;72.65;33.80;;;8.30;81.10;;;7.64;66.66;95719.06;4925115;28;20197;-87
2021/11/15 09:34:25;;;;;;;72.05;34.25;;;8.20;81.00;;;7.67;66.62;95716.97;4941332;29;20223;-87
2021/11/15 09:36:52;;;;;;;70.13;34.00;;;8.20;81.10;;;7.69;66.59;95722.06;4957211;28;20223;-86
2021/11/15 09:39:20;;;;;;;72.22;33.38;;;8.30;81.20;;;7.75;66.75;95715.38;4938406;28;20253;-86
2021/11/15 09:41:47;;;;;;;66.88;33.00;;;8.30;81.20;;;7.82;66.83;95712.00;4924867;28;20202;-87
2021/11/15 09:44:15;;;;;;;61.13;31.35;;;8.30;81.30;;;7.91;66.97;95712.88;4937448;28;20286;-88
2021/11/15 09:46:45;;;;;;;60.22;30.60;;;8.40;81.40;;;7.96;66.78;95715.84;4933727;28;20285;-85
2021/11/15 09:49:15;;;;;;;59.92;30.75;;;8.40;81.40;;;8.03;66.77;95716.00;4963382;28;20226;-86
2021/11/15 09:51:46;;;;;;;63.25;31.55;;;8.50;81.40;;;8.06;66.46;95714.91;4940896;28;20294;-88
2021/11/15 09:54:15;;;;;;;62.47;32.13;;;8.50;81.20;;;8.09;66.34;95709.34;4922404;28;20274;-88
2021/11/15 09:56:44;;;;;;;61.67;31.00;;;8.50;81.10;;;8.11;66.30;95710.03;4938042;28;20233;-87
2021/11/15 09:59:12;;;;;;;66.20;31.70;;;8.60;81.00;;;8.10;66.07;95708.38;4939526;28;20744;-88
2021/11/15 10:01:46;;;;;;;63.95;33.85;;;8.60;80.90;;;8.08;66.14;95703.31;4940852;28;20230;-87
2021/11/15 10:04:17;;;;;;;60.15;29.38;;;8.60;80.70;;;8.13;66.57;95703.66;4941150;28;20242;-87
2021/11/15 10:06:56;;;;;;;53.25;29.00;;;8.70;80.90;;;8.14;66.24;95710.53;4940509;28;20192;-87
2021/11/15 10:09:30;;;;;;;62.08;32.35;;;8.70;80.90;;;8.16;66.43;95695.50;4942601;28;20228;-88
2021/11/15 10:12:07;;;;;;;73.25;35.97;;;8.70;80.80;;;8.18;66.29;95697.97;4928235;28;20207;-87
2021/11/15 10:14:35;;;;;;;67.65;35.78;;;8.70;80.80;;;8.18;66.55;95690.13;4942243;28;20756;-88
2021/11/15 10:17:03;;;;;;;69.85;34.70;;;8.70;80.80;;;8.25;66.25;95693.75;4946033;29;20223;-86
2021/11/15 10:19:32;;;;;;;63.47;34.83;;;8.80;81.00;;;8.31;66.19;95698.34;4957843;28;20219;-87
2021/11/15 10:22:04;;;;;;;62.33;33.25;;;8.90;81.00;;;8.36;66.34;95695.28;4945015;28;20297;-86
2021/11/15 10:24:39;;;;;;;65.03;33.67;;;8.80;80.90;;;8.42;66.22;95699.03;4943427;28;20218;-86
2021/11/15 10:27:14;;;;;;;54.75;30.85;;;8.90;80.80;;;8.45;66.15;95701.34;4960810;28;20194;-86